createdAt,value
2018-07-30T00:00:05.980Z,28.90
2018-07-30T00:02:40.975Z,28.90
2018-07-30T00:05:11.373Z,28.90
2018-07-30T00:07:41.252Z,28.90
2018-07-30T00:10:11.020Z,28.90
2018-07-30T00:12:40.450Z,28.90
2018-07-30T00:15:09.899Z,28.90
2018-07-30T00:17:39.541Z,28.80
2018-07-30T00:20:08.992Z,28.80
2018-07-30T00:22:38.432Z,28.80
2018-07-30T00:25:07.924Z,28.80
2018-07-30T00:27:37.345Z,28.80
2018-07-30T00:30:06.795Z,28.80
2018-07-30T00:32:36.782Z,28.80
2018-07-30T00:35:06.902Z,28.70
2018-07-30T00:37:36.684Z,28.70
2018-07-30T00:40:09.245Z,28.70
2018-07-30T00:42:38.820Z,28.70
2018-07-30T00:45:08.263Z,28.70
2018-07-30T00:47:37.692Z,28.70
2018-07-30T00:50:07.539Z,28.70
2018-07-30T00:52:37.324Z,28.70
2018-07-30T00:55:06.811Z,28.60
2018-07-30T00:57:36.559Z,28.60
2018-07-30T01:00:07.647Z,28.60
2018-07-30T01:02:37.406Z,28.60
2018-07-30T01:05:07.279Z,28.60
2018-07-30T01:07:36.721Z,28.60
2018-07-30T01:10:06.422Z,28.60
2018-07-30T01:12:35.868Z,28.50
2018-07-30T01:15:06.055Z,28.50
2018-07-30T01:17:35.781Z,28.50
2018-07-30T01:20:05.553Z,28.50
2018-07-30T01:22:35.004Z,28.50
2018-07-30T01:25:04.509Z,28.50
2018-07-30T01:27:34.249Z,28.50
2018-07-30T01:30:03.733Z,28.50
2018-07-30T01:32:33.788Z,28.40
2018-07-30T01:35:03.556Z,28.40
2018-07-30T01:37:34.493Z,28.40
2018-07-30T01:40:04.003Z,28.40
2018-07-30T01:42:33.814Z,28.40
2018-07-30T01:45:03.572Z,28.40
2018-07-30T01:47:33.028Z,28.40
2018-07-30T01:50:02.444Z,28.40
2018-07-30T01:52:31.841Z,28.30
2018-07-30T01:55:01.561Z,28.30
2018-07-30T01:57:31.571Z,28.30
2018-07-30T02:00:00.964Z,28.30
2018-07-30T02:02:30.449Z,28.30
2018-07-30T02:05:00.667Z,28.30
2018-07-30T02:07:30.681Z,28.30
2018-07-30T02:10:00.170Z,28.30
2018-07-30T02:12:30.026Z,28.30
2018-07-30T02:14:59.602Z,28.30
2018-07-30T02:17:29.110Z,28.30
2018-07-30T02:19:58.500Z,28.20
2018-07-30T02:22:27.940Z,28.20
2018-07-30T02:24:57.365Z,28.20
2018-07-30T02:27:27.187Z,28.20
2018-07-30T02:29:57.289Z,28.20
2018-07-30T02:32:27.333Z,28.20
2018-07-30T02:34:56.820Z,28.20
2018-07-30T02:37:26.961Z,28.20
2018-07-30T02:39:57.358Z,28.10
2018-07-30T02:42:26.915Z,28.10
2018-07-30T02:44:56.674Z,28.10
2018-07-30T02:47:26.074Z,28.10
2018-07-30T02:49:55.192Z,28.10
2018-07-30T02:52:25.282Z,28.10
2018-07-30T02:54:55.518Z,28.10
2018-07-30T02:57:25.208Z,28.10
2018-07-30T02:59:54.943Z,28.10
2018-07-30T03:02:24.397Z,28.00
2018-07-30T03:04:54.965Z,28.00
2018-07-30T03:07:24.407Z,28.00
2018-07-30T03:09:53.930Z,28.00
2018-07-30T03:12:24.461Z,28.00
2018-07-30T03:14:53.897Z,28.00
2018-07-30T03:17:23.581Z,27.90
2018-07-30T03:19:52.968Z,27.90
2018-07-30T03:22:22.373Z,27.90
2018-07-30T03:24:51.903Z,27.90
2018-07-30T03:27:21.944Z,27.90
2018-07-30T03:29:52.330Z,27.90
2018-07-30T03:32:22.161Z,27.90
2018-07-30T03:34:51.574Z,27.80
2018-07-30T03:37:21.040Z,27.80
2018-07-30T03:39:50.485Z,27.80
2018-07-30T03:42:19.988Z,27.80
2018-07-30T03:44:49.717Z,27.80
2018-07-30T03:47:19.513Z,27.80
2018-07-30T03:49:48.887Z,27.80
2018-07-30T03:52:18.591Z,27.80
2018-07-30T03:54:48.771Z,27.80
2018-07-30T03:57:18.532Z,27.70
2018-07-30T03:59:47.953Z,27.70
2018-07-30T04:02:18.015Z,27.70
2018-07-30T04:04:48.033Z,27.70
2018-07-30T04:07:17.478Z,27.70
2018-07-30T04:09:46.938Z,27.70
2018-07-30T04:12:17.079Z,27.70
2018-07-30T04:14:47.150Z,27.70
2018-07-30T04:17:16.859Z,27.70
2018-07-30T04:19:46.605Z,27.70
2018-07-30T04:22:16.030Z,27.60
2018-07-30T04:24:45.456Z,27.60
2018-07-30T04:27:15.131Z,27.60
2018-07-30T04:29:44.252Z,27.60
2018-07-30T04:32:14.002Z,27.60
2018-07-30T04:34:43.808Z,27.60
2018-07-30T04:37:13.235Z,27.60
2018-07-30T04:39:42.944Z,27.60
2018-07-30T04:42:12.708Z,27.60
2018-07-30T04:44:42.457Z,27.60
2018-07-30T04:47:12.144Z,27.50
2018-07-30T04:49:42.187Z,27.60
2018-07-30T04:52:11.966Z,27.60
2018-07-30T04:54:41.356Z,27.50
2018-07-30T04:57:11.044Z,27.50
2018-07-30T04:59:40.494Z,27.50
2018-07-30T05:02:09.977Z,27.50
2018-07-30T05:04:40.769Z,27.50
2018-07-30T05:07:10.663Z,27.50
2018-07-30T05:09:40.686Z,27.50
2018-07-30T05:12:10.534Z,27.50
2018-07-30T05:14:40.271Z,27.50
2018-07-30T05:17:09.694Z,27.50
2018-07-30T05:19:39.462Z,27.50
2018-07-30T05:22:09.166Z,27.50
2018-07-30T05:24:38.907Z,27.50
2018-07-30T05:27:08.666Z,27.50
2018-07-30T05:29:38.734Z,27.50
2018-07-30T05:32:08.161Z,27.60
2018-07-30T05:34:37.870Z,27.60
2018-07-30T05:37:07.983Z,27.60
2018-07-30T05:39:37.725Z,27.60
2018-07-30T05:42:07.564Z,27.60
2018-07-30T05:44:37.754Z,27.70
2018-07-30T05:47:08.201Z,27.70
2018-07-30T05:49:37.710Z,27.70
2018-07-30T05:52:07.856Z,27.70
2018-07-30T05:54:37.414Z,27.80
2018-07-30T05:57:07.413Z,27.80
2018-07-30T05:59:37.321Z,27.90
2018-07-30T06:02:06.736Z,28.00
2018-07-30T06:04:36.221Z,28.00
2018-07-30T06:07:05.634Z,28.10
2018-07-30T06:09:35.328Z,28.20
2018-07-30T06:12:05.398Z,28.30
2018-07-30T06:14:35.171Z,28.40
2018-07-30T06:17:05.298Z,28.60
2018-07-30T06:19:34.730Z,28.70
2018-07-30T06:22:04.445Z,28.90
2018-07-30T06:24:34.201Z,29.00
2018-07-30T06:27:04.348Z,29.20
2018-07-30T06:29:33.757Z,29.30
2018-07-30T06:32:03.535Z,29.50
2018-07-30T06:34:33.068Z,29.70
2018-07-30T06:37:02.845Z,29.80
2018-07-30T06:39:33.039Z,30.00
2018-07-30T06:42:02.843Z,30.20
2018-07-30T06:44:32.576Z,30.40
2018-07-30T06:47:02.041Z,30.60
2018-07-30T06:49:31.873Z,30.70
2018-07-30T06:52:01.622Z,30.90
2018-07-30T06:54:31.886Z,31.10
2018-07-30T06:57:01.277Z,31.30
2018-07-30T06:59:30.645Z,31.50
2018-07-30T07:02:00.050Z,31.60
2018-07-30T07:04:29.480Z,31.80
2018-07-30T07:06:58.877Z,32.00
2018-07-30T07:09:28.586Z,32.20
2018-07-30T07:11:58.014Z,32.30
2018-07-30T07:14:27.435Z,32.50
2018-07-30T07:16:56.937Z,32.60
2018-07-30T07:19:26.494Z,32.80
2018-07-30T07:21:55.912Z,32.90
2018-07-30T07:24:25.322Z,33.10
2018-07-30T07:26:54.744Z,33.20
2018-07-30T07:29:24.120Z,33.30
2018-07-30T07:31:53.865Z,33.40
2018-07-30T07:34:23.261Z,33.60
2018-07-30T07:36:52.628Z,33.60
2018-07-30T07:39:21.996Z,33.80
2018-07-30T07:41:51.769Z,33.90
2018-07-30T07:44:21.220Z,34.00
2018-07-30T07:46:50.565Z,34.10
2018-07-30T07:49:19.948Z,34.20
2018-07-30T07:51:49.395Z,34.30
2018-07-30T07:54:18.804Z,34.50
2018-07-30T07:56:48.212Z,34.60
2018-07-30T07:59:17.568Z,34.70
2018-07-30T08:01:47.081Z,34.80
2018-07-30T08:04:16.538Z,35.00
2018-07-30T08:06:45.990Z,35.10
2018-07-30T08:09:15.405Z,35.20
2018-07-30T08:11:44.850Z,35.40
2018-07-30T08:14:14.233Z,35.50
2018-07-30T08:16:43.620Z,35.70
2018-07-30T08:19:13.109Z,35.80
2018-07-30T08:21:42.852Z,35.90
2018-07-30T08:24:12.378Z,36.00
2018-07-30T08:26:41.782Z,36.10
2018-07-30T08:29:11.261Z,36.20
2018-07-30T08:31:40.639Z,36.40
2018-07-30T08:34:10.068Z,36.50
2018-07-30T08:36:39.446Z,36.60
2018-07-30T08:39:11.117Z,36.70
2018-07-30T08:41:40.506Z,36.80
2018-07-30T08:44:09.960Z,37.00
2018-07-30T08:46:39.457Z,37.10
2018-07-30T08:49:08.848Z,37.20
2018-07-30T08:51:38.225Z,37.30
2018-07-30T08:54:07.732Z,37.40
2018-07-30T08:56:37.143Z,37.50
2018-07-30T08:59:06.588Z,37.60
2018-07-30T09:01:35.987Z,37.70
2018-07-30T09:04:05.542Z,37.80
2018-07-30T09:06:34.912Z,37.90
2018-07-30T09:09:05.937Z,38.00
2018-07-30T09:11:35.382Z,38.00
2018-07-30T09:14:04.914Z,38.20
2018-07-30T09:16:34.382Z,38.30
2018-07-30T09:19:03.844Z,38.30
2018-07-30T09:21:33.416Z,38.40
2018-07-30T09:24:03.003Z,38.40
2018-07-30T09:26:32.351Z,38.50
2018-07-30T09:29:08.358Z,38.50
2018-07-30T09:31:38.053Z,38.40
2018-07-30T09:34:07.612Z,38.40
2018-07-30T09:36:37.031Z,38.40
2018-07-30T09:39:10.128Z,38.40
2018-07-30T09:41:39.697Z,38.40
2018-07-30T09:44:09.114Z,38.30
2018-07-30T09:46:38.497Z,38.30
2018-07-30T09:49:07.857Z,38.20
2018-07-30T09:51:37.288Z,38.20
2018-07-30T09:54:06.696Z,38.10
2018-07-30T09:56:36.043Z,38.00
2018-07-30T09:59:05.704Z,38.00
2018-07-30T10:01:35.099Z,37.90
2018-07-30T10:04:04.865Z,37.90
2018-07-30T10:06:34.323Z,37.80
2018-07-30T10:09:05.881Z,37.80
2018-07-30T10:11:35.291Z,37.70
2018-07-30T10:14:04.853Z,37.70
2018-07-30T10:16:34.292Z,37.60
2018-07-30T10:19:03.701Z,37.50
2018-07-30T10:21:33.062Z,37.50
2018-07-30T10:24:02.521Z,37.40
2018-07-30T10:26:31.884Z,37.40
2018-07-30T10:29:01.240Z,37.30
2018-07-30T10:31:30.669Z,37.30
2018-07-30T10:34:00.074Z,37.20
2018-07-30T10:36:30.356Z,37.20
2018-07-30T10:39:00.176Z,37.10
2018-07-30T10:41:29.928Z,37.10
2018-07-30T10:44:00.126Z,37.00
2018-07-30T10:46:29.645Z,36.90
2018-07-30T10:48:59.373Z,36.90
2018-07-30T10:51:29.346Z,36.80
2018-07-30T10:53:59.604Z,36.80
2018-07-30T10:56:29.099Z,36.70
2018-07-30T10:58:59.326Z,36.70
2018-07-30T11:01:28.768Z,36.60
2018-07-30T11:03:58.471Z,36.60
2018-07-30T11:06:27.912Z,36.50
2018-07-30T11:08:57.426Z,36.50
2018-07-30T11:11:26.952Z,36.50
2018-07-30T11:13:56.708Z,36.40
2018-07-30T11:16:26.819Z,36.40
2018-07-30T11:18:56.556Z,36.40
2018-07-30T11:21:26.297Z,36.30
2018-07-30T11:23:56.459Z,36.30
2018-07-30T11:26:26.279Z,36.30
2018-07-30T11:28:56.024Z,36.20
2018-07-30T11:31:25.521Z,36.20
2018-07-30T11:33:55.377Z,36.20
2018-07-30T11:36:25.517Z,36.10
2018-07-30T11:38:55.910Z,36.10
2018-07-30T11:41:25.432Z,36.10
2018-07-30T11:43:55.177Z,36.00
2018-07-30T11:46:25.457Z,36.00
2018-07-30T11:48:55.318Z,36.00
2018-07-30T11:51:25.117Z,35.90
2018-07-30T11:53:55.245Z,35.90
2018-07-30T11:56:25.350Z,35.90
2018-07-30T11:58:54.824Z,35.80
2018-07-30T12:01:25.429Z,35.80
2018-07-30T12:03:55.166Z,35.80
2018-07-30T12:06:24.621Z,35.80
2018-07-30T12:08:54.677Z,35.70
2018-07-30T12:11:24.048Z,35.70
2018-07-30T12:13:53.522Z,35.70
2018-07-30T12:16:23.250Z,35.70
2018-07-30T12:18:52.818Z,35.60
2018-07-30T12:21:22.838Z,35.60
2018-07-30T12:23:52.604Z,35.60
2018-07-30T12:26:22.733Z,35.60
2018-07-30T12:28:52.991Z,35.50
2018-07-30T12:31:22.747Z,35.50
2018-07-30T12:33:52.209Z,35.50
2018-07-30T12:36:22.050Z,35.50
2018-07-30T12:38:51.555Z,35.50
2018-07-30T12:41:21.039Z,35.40
2018-07-30T12:43:50.814Z,35.40
2018-07-30T12:46:20.356Z,35.40
2018-07-30T12:48:50.529Z,35.40
2018-07-30T12:51:20.652Z,35.40
2018-07-30T12:53:50.481Z,35.30
2018-07-30T12:56:20.253Z,35.30
2018-07-30T12:58:50.297Z,35.30
2018-07-30T13:01:20.126Z,35.30
2018-07-30T13:03:49.603Z,35.30
2018-07-30T13:06:19.415Z,35.20
2018-07-30T13:08:49.339Z,35.20
2018-07-30T13:11:19.150Z,35.20
2018-07-30T13:13:48.693Z,35.20
2018-07-30T13:16:18.645Z,35.20
2018-07-30T13:18:48.571Z,35.20
2018-07-30T13:21:18.495Z,35.20
2018-07-30T13:23:47.857Z,35.10
2018-07-30T13:26:17.776Z,35.10
2018-07-30T13:28:47.199Z,35.10
2018-07-30T13:31:17.322Z,35.10
2018-07-30T13:33:46.991Z,35.10
2018-07-30T13:36:16.637Z,35.10
2018-07-30T13:38:46.490Z,35.10
2018-07-30T13:41:16.018Z,35.10
2018-07-30T13:43:45.843Z,35.10
2018-07-30T13:46:15.639Z,35.10
2018-07-30T13:48:45.130Z,35.10
2018-07-30T13:51:15.034Z,35.10
2018-07-30T13:53:45.404Z,35.00
2018-07-30T13:56:15.197Z,35.00
2018-07-30T13:58:44.645Z,35.00
2018-07-30T14:01:14.107Z,35.00
2018-07-30T14:03:43.587Z,35.00
2018-07-30T14:06:13.217Z,35.00
2018-07-30T14:08:42.982Z,35.00
2018-07-30T14:11:12.485Z,35.00
2018-07-30T14:13:42.497Z,35.00
2018-07-30T14:16:12.272Z,35.00
2018-07-30T14:18:42.312Z,34.90
2018-07-30T14:21:11.702Z,35.00
2018-07-30T14:23:41.553Z,34.90
2018-07-30T14:26:11.079Z,34.90
2018-07-30T14:28:41.362Z,34.90
2018-07-30T14:31:10.860Z,34.90
2018-07-30T14:33:40.327Z,34.90
2018-07-30T14:36:09.793Z,34.90
2018-07-30T14:38:39.892Z,34.90
2018-07-30T14:41:09.720Z,34.90
2018-07-30T14:43:39.217Z,34.90
2018-07-30T14:46:08.683Z,34.90
2018-07-30T14:48:38.782Z,34.90
2018-07-30T14:51:08.252Z,34.90
2018-07-30T14:53:38.113Z,34.90
2018-07-30T14:56:07.952Z,34.90
2018-07-30T14:58:37.678Z,34.90
2018-07-30T15:01:08.194Z,34.90
2018-07-30T15:03:37.700Z,34.90
2018-07-30T15:06:07.563Z,34.90
2018-07-30T15:08:37.597Z,34.90
2018-07-30T15:11:08.208Z,34.90
2018-07-30T15:13:38.085Z,34.90
2018-07-30T15:16:07.530Z,34.90
2018-07-30T15:18:37.742Z,34.90
2018-07-30T15:21:07.320Z,34.90
2018-07-30T15:23:36.870Z,34.90
2018-07-30T15:26:06.872Z,34.90
2018-07-30T15:28:36.725Z,34.90
2018-07-30T15:31:06.278Z,34.90
2018-07-30T15:33:35.706Z,34.90
2018-07-30T15:36:05.487Z,34.90
2018-07-30T15:38:35.219Z,34.90
2018-07-30T15:41:04.799Z,34.90
2018-07-30T15:43:34.307Z,34.90
2018-07-30T15:46:03.808Z,34.90
2018-07-30T15:48:33.115Z,34.90
2018-07-30T15:51:03.085Z,34.90
2018-07-30T15:53:32.558Z,34.80
2018-07-30T15:56:02.326Z,34.90
2018-07-30T15:58:31.850Z,34.90
2018-07-30T16:01:01.299Z,34.90
2018-07-30T16:03:30.798Z,34.90
2018-07-30T16:06:00.160Z,34.90
2018-07-30T16:08:29.657Z,34.90
2018-07-30T16:10:59.043Z,34.90
2018-07-30T16:13:28.485Z,34.90
2018-07-30T16:15:57.937Z,34.90
2018-07-30T16:18:27.350Z,34.90
2018-07-30T16:20:56.742Z,34.90
2018-07-30T16:23:26.205Z,34.90
2018-07-30T16:25:55.640Z,34.90
2018-07-30T16:28:25.460Z,34.90
2018-07-30T16:30:55.078Z,34.90
2018-07-30T16:33:24.297Z,34.80
2018-07-30T16:35:53.817Z,34.80
2018-07-30T16:38:23.695Z,34.80
2018-07-30T16:40:53.757Z,34.80
2018-07-30T16:43:23.200Z,34.80
2018-07-30T16:45:52.912Z,34.80
2018-07-30T16:48:22.488Z,34.80
2018-07-30T16:50:51.992Z,34.80
2018-07-30T16:53:21.713Z,34.80
2018-07-30T16:55:51.221Z,34.80
2018-07-30T16:58:21.006Z,34.80
2018-07-30T17:00:50.370Z,34.80
2018-07-30T17:03:19.830Z,34.70
2018-07-30T17:05:49.982Z,34.70
2018-07-30T17:08:19.852Z,34.70
2018-07-30T17:10:49.448Z,34.70
2018-07-30T17:13:18.946Z,34.70
2018-07-30T17:15:49.037Z,34.70
2018-07-30T17:18:19.268Z,34.70
2018-07-30T17:20:48.757Z,34.70
2018-07-30T17:23:18.757Z,34.70
2018-07-30T17:25:48.524Z,34.70
2018-07-30T17:28:18.284Z,34.80
2018-07-30T17:30:47.806Z,34.80
2018-07-30T17:33:17.900Z,34.70
2018-07-30T17:35:47.606Z,34.80
2018-07-30T17:38:17.113Z,34.70
2018-07-30T17:40:46.596Z,34.70
2018-07-30T17:43:16.080Z,34.80
2018-07-30T17:45:45.916Z,34.70
2018-07-30T17:48:15.406Z,34.70
2018-07-30T17:50:44.837Z,34.70
2018-07-30T17:53:14.329Z,34.70
2018-07-30T17:55:44.051Z,34.80
2018-07-30T17:58:13.865Z,34.70
2018-07-30T18:00:43.591Z,34.70
2018-07-30T18:03:13.017Z,34.70
2018-07-30T18:05:42.487Z,34.70
2018-07-30T18:08:12.266Z,34.70
2018-07-30T18:10:42.250Z,34.70
2018-07-30T18:13:12.045Z,34.70
2018-07-30T18:15:41.805Z,34.70
2018-07-30T18:18:11.313Z,34.70
2018-07-30T18:20:41.364Z,34.70
2018-07-30T18:23:10.886Z,34.70
2018-07-30T18:25:40.600Z,34.70
2018-07-30T18:28:10.032Z,34.70
2018-07-30T18:30:40.110Z,34.60
2018-07-30T18:33:09.921Z,34.60
2018-07-30T18:35:39.763Z,34.60
2018-07-30T18:38:09.868Z,34.60
2018-07-30T18:40:39.802Z,34.60
2018-07-30T18:43:09.582Z,34.60
2018-07-30T18:45:39.048Z,34.50
2018-07-30T18:48:08.759Z,34.50
2018-07-30T18:50:38.828Z,34.50
2018-07-30T18:53:08.860Z,34.50
2018-07-30T18:55:38.687Z,34.50
2018-07-30T18:58:08.298Z,34.50
2018-07-30T19:00:37.769Z,34.40
2018-07-30T19:03:08.093Z,34.40
2018-07-30T19:05:37.890Z,34.40
2018-07-30T19:08:07.764Z,34.40
2018-07-30T19:10:37.581Z,34.30
2018-07-30T19:13:08.032Z,34.30
2018-07-30T19:15:37.779Z,34.30
2018-07-30T19:18:07.956Z,34.30
2018-07-30T19:20:37.717Z,34.30
2018-07-30T19:23:07.509Z,34.20
2018-07-30T19:25:37.252Z,34.20
2018-07-30T19:28:07.179Z,34.20
2018-07-30T19:30:37.459Z,34.10
2018-07-30T19:33:06.976Z,34.10
2018-07-30T19:35:36.577Z,34.10
2018-07-30T19:38:06.934Z,34.00
2018-07-30T19:40:37.178Z,34.00
2018-07-30T19:43:06.655Z,34.00
2018-07-30T19:45:36.167Z,33.90
2018-07-30T19:48:05.856Z,33.90
2018-07-30T19:50:35.316Z,33.90
2018-07-30T19:53:04.762Z,33.80
2018-07-30T19:55:34.905Z,33.80
2018-07-30T19:58:04.955Z,33.80
2018-07-30T20:00:34.598Z,33.70
2018-07-30T20:03:04.115Z,33.70
2018-07-30T20:05:33.612Z,33.70
2018-07-30T20:08:03.103Z,33.60
2018-07-30T20:10:33.217Z,33.60
2018-07-30T20:13:03.026Z,33.60
2018-07-30T20:15:32.965Z,33.50
2018-07-30T20:18:02.519Z,33.50
2018-07-30T20:20:32.164Z,33.40
2018-07-30T20:23:01.635Z,33.40
2018-07-30T20:25:31.409Z,33.40
2018-07-30T20:28:01.225Z,33.30
2018-07-30T20:30:30.628Z,33.30
2018-07-30T20:33:00.136Z,33.30
2018-07-30T20:35:29.552Z,33.20
2018-07-30T20:37:59.251Z,33.20
2018-07-30T20:40:28.948Z,33.10
2018-07-30T20:42:58.740Z,33.10
2018-07-30T20:45:29.023Z,33.10
2018-07-30T20:47:58.481Z,33.00
2018-07-30T20:50:28.365Z,33.00
2018-07-30T20:52:58.284Z,32.90
2018-07-30T20:55:28.313Z,32.90
2018-07-30T20:57:58.164Z,32.90
2018-07-30T21:00:27.780Z,32.80
2018-07-30T21:02:57.307Z,32.80
2018-07-30T21:05:32.115Z,32.80
2018-07-30T21:08:02.284Z,32.70
2018-07-30T21:10:31.698Z,32.70
2018-07-30T21:13:01.858Z,32.60
2018-07-30T21:15:31.410Z,32.60
2018-07-30T21:18:00.857Z,32.60
2018-07-30T21:20:30.786Z,32.50
2018-07-30T21:23:00.940Z,32.50
2018-07-30T21:25:30.689Z,32.50
2018-07-30T21:28:00.243Z,32.40
2018-07-30T21:30:30.322Z,32.40
2018-07-30T21:33:00.050Z,32.40
2018-07-30T21:35:30.221Z,32.30
2018-07-30T21:38:00.375Z,32.30
2018-07-30T21:40:29.825Z,32.30
2018-07-30T21:42:59.656Z,32.30
2018-07-30T21:45:29.188Z,32.20
2018-07-30T21:47:58.588Z,32.20
2018-07-30T21:50:28.332Z,32.20
2018-07-30T21:52:57.813Z,32.10
2018-07-30T21:55:27.868Z,32.10
2018-07-30T21:57:57.317Z,32.10
2018-07-30T22:00:27.539Z,32.10
2018-07-30T22:02:57.980Z,32.00
2018-07-30T22:05:28.046Z,32.00
2018-07-30T22:07:58.489Z,32.00
2018-07-30T22:10:27.964Z,31.90
2018-07-30T22:12:57.754Z,31.90
2018-07-30T22:15:27.485Z,31.90
2018-07-30T22:17:57.607Z,31.90
2018-07-30T22:20:27.306Z,31.80
2018-07-30T22:22:56.754Z,31.80
2018-07-30T22:25:26.775Z,31.80
2018-07-30T22:27:56.215Z,31.70
2018-07-30T22:30:26.195Z,31.70
2018-07-30T22:32:56.428Z,31.70
2018-07-30T22:35:26.168Z,31.70
2018-07-30T22:37:55.911Z,31.60
2018-07-30T22:40:25.353Z,31.60
2018-07-30T22:42:55.149Z,31.60
2018-07-30T22:45:24.594Z,31.60
2018-07-30T22:47:54.457Z,31.50
2018-07-30T22:50:24.312Z,31.50
2018-07-30T22:52:54.028Z,31.50
2018-07-30T22:55:24.056Z,31.50
2018-07-30T22:57:53.708Z,31.50
2018-07-30T23:00:23.503Z,31.40
2018-07-30T23:02:53.209Z,31.40
2018-07-30T23:05:22.684Z,31.40
2018-07-30T23:07:52.533Z,31.40
2018-07-30T23:10:22.269Z,31.30
2018-07-30T23:12:51.731Z,31.30
2018-07-30T23:15:21.460Z,31.30
2018-07-30T23:17:50.834Z,31.30
2018-07-30T23:20:20.496Z,31.20
2018-07-30T23:22:50.280Z,31.20
2018-07-30T23:25:19.718Z,31.20
2018-07-30T23:27:49.772Z,31.10
2018-07-30T23:30:19.564Z,31.10
2018-07-30T23:32:49.314Z,31.10
2018-07-30T23:35:18.944Z,31.10
2018-07-30T23:37:48.699Z,31.00
2018-07-30T23:40:18.180Z,31.00
2018-07-30T23:42:47.599Z,31.00
2018-07-30T23:45:17.273Z,30.90
2018-07-30T23:47:47.804Z,30.90
2018-07-30T23:50:17.216Z,30.90
2018-07-30T23:52:46.953Z,30.90
2018-07-30T23:55:16.887Z,30.80
2018-07-30T23:57:46.590Z,30.80
